sensor_id;sensor_type;location;lat;lon;timestamp;temperature;humidity
11569;DHT22;5840;46.894;15.542;2023-08-21T00:00:48;21.60;99.90
11569;DHT22;5840;46.894;15.542;2023-08-21T00:03:15;21.50;99.90
11569;DHT22;5840;46.894;15.542;2023-08-21T00:05:42;21.50;99.90
11569;DHT22;5840;46.894;15.542;2023-08-21T00:08:09;21.50;99.90
11569;DHT22;5840;46.894;15.542;2023-08-21T00:10:37;21.50;99.90
11569;DHT22;5840;46.894;15.542;2023-08-21T00:13:04;21.50;99.90
11569;DHT22;5840;46.894;15.542;2023-08-21T00:15:33;21.50;99.90
11569;DHT22;5840;46.894;15.542;2023-08-21T00:18:00;21.40;99.90
11569;DHT22;5840;46.894;15.542;2023-08-21T00:20:27;21.40;99.90
11569;DHT22;5840;46.894;15.542;2023-08-21T00:22:54;21.40;99.90
11569;DHT22;5840;46.894;15.542;2023-08-21T00:25:22;21.40;99.90
11569;DHT22;5840;46.894;15.542;2023-08-21T00:27:49;21.40;99.90
11569;DHT22;5840;46.894;15.542;2023-08-21T00:30:16;21.30;99.90
11569;DHT22;5840;46.894;15.542;2023-08-21T00:32:44;21.30;99.90
11569;DHT22;5840;46.894;15.542;2023-08-21T00:35:11;21.30;99.90
11569;DHT22;5840;46.894;15.542;2023-08-21T00:37:38;21.30;99.90
11569;DHT22;5840;46.894;15.542;2023-08-21T00:40:06;21.30;99.90
11569;DHT22;5840;46.894;15.542;2023-08-21T00:42:33;21.20;99.90
11569;DHT22;5840;46.894;15.542;2023-08-21T00:45:00;21.20;99.90
11569;DHT22;5840;46.894;15.542;2023-08-21T00:47:27;21.20;99.90
11569;DHT22;5840;46.894;15.542;2023-08-21T00:49:55;21.20;99.90
11569;DHT22;5840;46.894;15.542;2023-08-21T00:52:22;21.20;99.90
11569;DHT22;5840;46.894;15.542;2023-08-21T00:54:50;21.20;99.90
11569;DHT22;5840;46.894;15.542;2023-08-21T00:57:17;21.10;99.90
11569;DHT22;5840;46.894;15.542;2023-08-21T00:59:44;21.10;99.90
11569;DHT22;5840;46.894;15.542;2023-08-21T01:02:11;21.00;99.90
11569;DHT22;5840;46.894;15.542;2023-08-21T01:04:38;21.00;99.90
11569;DHT22;5840;46.894;15.542;2023-08-21T01:07:07;21.00;99.90
11569;DHT22;5840;46.894;15.542;2023-08-21T01:09:40;20.90;99.90
11569;DHT22;5840;46.894;15.542;2023-08-21T01:12:19;21.00;99.90
11569;DHT22;5840;46.894;15.542;2023-08-21T01:14:54;20.90;99.90
11569;DHT22;5840;46.894;15.542;2023-08-21T01:17:24;20.90;99.90
11569;DHT22;5840;46.894;15.542;2023-08-21T01:19:52;20.90;99.90
11569;DHT22;5840;46.894;15.542;2023-08-21T01:22:25;20.80;99.90
11569;DHT22;5840;46.894;15.542;2023-08-21T01:24:54;20.80;99.90
11569;DHT22;5840;46.894;15.542;2023-08-21T01:27:21;20.80;99.90
11569;DHT22;5840;46.894;15.542;2023-08-21T01:29:48;20.80;99.90
11569;DHT22;5840;46.894;15.542;2023-08-21T01:32:21;20.80;99.90
11569;DHT22;5840;46.894;15.542;2023-08-21T01:34:51;20.80;99.90
11569;DHT22;5840;46.894;15.542;2023-08-21T01:37:21;20.80;99.90
11569;DHT22;5840;46.894;15.542;2023-08-21T01:39:48;20.70;99.90
11569;DHT22;5840;46.894;15.542;2023-08-21T01:42:17;20.70;99.90
11569;DHT22;5840;46.894;15.542;2023-08-21T01:44:43;20.70;99.90
11569;DHT22;5840;46.894;15.542;2023-08-21T01:47:11;20.60;99.90
11569;DHT22;5840;46.894;15.542;2023-08-21T01:49:38;20.60;99.90
11569;DHT22;5840;46.894;15.542;2023-08-21T01:52:05;20.60;99.90
11569;DHT22;5840;46.894;15.542;2023-08-21T01:54:32;20.50;99.90
11569;DHT22;5840;46.894;15.542;2023-08-21T01:56:59;20.50;99.90
11569;DHT22;5840;46.894;15.542;2023-08-21T01:59:27;20.50;99.90
11569;DHT22;5840;46.894;15.542;2023-08-21T02:01:54;20.40;99.90
11569;DHT22;5840;46.894;15.542;2023-08-21T02:04:21;20.40;99.90
11569;DHT22;5840;46.894;15.542;2023-08-21T02:06:48;20.40;99.90
11569;DHT22;5840;46.894;15.542;2023-08-21T02:09:15;20.40;99.90
11569;DHT22;5840;46.894;15.542;2023-08-21T02:11:42;20.30;99.90
11569;DHT22;5840;46.894;15.542;2023-08-21T02:14:08;20.30;99.90
11569;DHT22;5840;46.894;15.542;2023-08-21T02:16:37;20.20;99.90
11569;DHT22;5840;46.894;15.542;2023-08-21T02:19:04;20.20;99.90
11569;DHT22;5840;46.894;15.542;2023-08-21T02:21:31;20.20;99.90
11569;DHT22;5840;46.894;15.542;2023-08-21T02:23:59;20.20;99.90
11569;DHT22;5840;46.894;15.542;2023-08-21T02:26:26;20.20;99.90
11569;DHT22;5840;46.894;15.542;2023-08-21T02:28:52;20.20;99.90
11569;DHT22;5840;46.894;15.542;2023-08-21T02:31:19;20.10;99.90
11569;DHT22;5840;46.894;15.542;2023-08-21T02:33:48;20.10;99.90
11569;DHT22;5840;46.894;15.542;2023-08-21T02:36:15;20.10;99.90
11569;DHT22;5840;46.894;15.542;2023-08-21T02:38:42;20.10;99.90
11569;DHT22;5840;46.894;15.542;2023-08-21T02:41:09;20.20;99.90
11569;DHT22;5840;46.894;15.542;2023-08-21T02:43:36;20.10;99.90
11569;DHT22;5840;46.894;15.542;2023-08-21T02:46:03;20.10;99.90
11569;DHT22;5840;46.894;15.542;2023-08-21T02:48:29;20.00;99.90
11569;DHT22;5840;46.894;15.542;2023-08-21T02:50:58;20.00;99.90
11569;DHT22;5840;46.894;15.542;2023-08-21T02:53:24;20.00;99.90
11569;DHT22;5840;46.894;15.542;2023-08-21T02:55:51;20.00;99.90
11569;DHT22;5840;46.894;15.542;2023-08-21T02:58:18;20.00;99.90
11569;DHT22;5840;46.894;15.542;2023-08-21T03:00:45;20.00;99.90
11569;DHT22;5840;46.894;15.542;2023-08-21T03:03:12;20.00;99.90
11569;DHT22;5840;46.894;15.542;2023-08-21T03:05:39;20.00;99.90
11569;DHT22;5840;46.894;15.542;2023-08-21T03:08:07;19.90;99.90
11569;DHT22;5840;46.894;15.542;2023-08-21T03:10:34;19.90;99.90
11569;DHT22;5840;46.894;15.542;2023-08-21T03:13:02;19.90;99.90
11569;DHT22;5840;46.894;15.542;2023-08-21T03:15:29;19.90;99.90
11569;DHT22;5840;46.894;15.542;2023-08-21T03:17:56;19.90;99.90
11569;DHT22;5840;46.894;15.542;2023-08-21T03:20:23;19.90;99.90
11569;DHT22;5840;46.894;15.542;2023-08-21T03:22:50;19.80;99.90
11569;DHT22;5840;46.894;15.542;2023-08-21T03:25:18;19.80;99.90
11569;DHT22;5840;46.894;15.542;2023-08-21T03:27:45;19.70;99.90
11569;DHT22;5840;46.894;15.542;2023-08-21T03:30:15;19.70;99.90
11569;DHT22;5840;46.894;15.542;2023-08-21T03:32:42;19.70;99.90
11569;DHT22;5840;46.894;15.542;2023-08-21T03:35:09;19.70;99.90
11569;DHT22;5840;46.894;15.542;2023-08-21T03:37:36;19.70;99.90
11569;DHT22;5840;46.894;15.542;2023-08-21T03:40:04;19.70;99.90
11569;DHT22;5840;46.894;15.542;2023-08-21T03:42:32;19.70;99.90
11569;DHT22;5840;46.894;15.542;2023-08-21T03:44:59;19.70;99.90
11569;DHT22;5840;46.894;15.542;2023-08-21T03:47:26;19.60;99.90
11569;DHT22;5840;46.894;15.542;2023-08-21T03:49:53;19.60;99.90
11569;DHT22;5840;46.894;15.542;2023-08-21T03:52:20;19.50;99.90
11569;DHT22;5840;46.894;15.542;2023-08-21T03:54:46;19.50;99.90
11569;DHT22;5840;46.894;15.542;2023-08-21T03:57:13;19.50;99.90
11569;DHT22;5840;46.894;15.542;2023-08-21T03:59:42;19.50;99.90
11569;DHT22;5840;46.894;15.542;2023-08-21T04:02:09;19.50;99.90
11569;DHT22;5840;46.894;15.542;2023-08-21T04:04:36;19.50;99.90
11569;DHT22;5840;46.894;15.542;2023-08-21T04:07:03;19.50;99.90
11569;DHT22;5840;46.894;15.542;2023-08-21T04:09:30;19.50;99.90
11569;DHT22;5840;46.894;15.542;2023-08-21T04:11:56;19.40;99.90
11569;DHT22;5840;46.894;15.542;2023-08-21T04:14:23;19.40;99.90
11569;DHT22;5840;46.894;15.542;2023-08-21T04:16:52;19.40;99.90
11569;DHT22;5840;46.894;15.542;2023-08-21T04:19:18;19.40;99.90
11569;DHT22;5840;46.894;15.542;2023-08-21T04:21:45;19.40;99.90
11569;DHT22;5840;46.894;15.542;2023-08-21T04:24:12;19.40;99.90
11569;DHT22;5840;46.894;15.542;2023-08-21T04:26:39;19.40;99.90
11569;DHT22;5840;46.894;15.542;2023-08-21T04:29:07;19.40;99.90
11569;DHT22;5840;46.894;15.542;2023-08-21T04:31:34;19.50;99.90
11569;DHT22;5840;46.894;15.542;2023-08-21T04:34:02;19.50;99.90
11569;DHT22;5840;46.894;15.542;2023-08-21T04:36:29;19.50;99.90
11569;DHT22;5840;46.894;15.542;2023-08-21T04:38:56;19.40;99.90
11569;DHT22;5840;46.894;15.542;2023-08-21T04:41:23;19.40;99.90
11569;DHT22;5840;46.894;15.542;2023-08-21T04:43:50;19.40;99.90
11569;DHT22;5840;46.894;15.542;2023-08-21T04:46:17;19.40;99.90
11569;DHT22;5840;46.894;15.542;2023-08-21T04:48:45;19.30;99.90
11569;DHT22;5840;46.894;15.542;2023-08-21T04:51:13;19.40;99.90
11569;DHT22;5840;46.894;15.542;2023-08-21T04:53:40;19.40;99.90
11569;DHT22;5840;46.894;15.542;2023-08-21T04:56:07;19.40;99.90
11569;DHT22;5840;46.894;15.542;2023-08-21T04:58:34;19.40;99.90
11569;DHT22;5840;46.894;15.542;2023-08-21T05:01:01;19.40;99.90
11569;DHT22;5840;46.894;15.542;2023-08-21T05:03:28;19.40;99.90
11569;DHT22;5840;46.894;15.542;2023-08-21T05:05:55;19.50;99.90
11569;DHT22;5840;46.894;15.542;2023-08-21T05:08:24;19.50;99.90
11569;DHT22;5840;46.894;15.542;2023-08-21T05:10:54;19.50;99.90
11569;DHT22;5840;46.894;15.542;2023-08-21T05:13:22;19.50;99.90
11569;DHT22;5840;46.894;15.542;2023-08-21T05:15:51;19.50;99.90
11569;DHT22;5840;46.894;15.542;2023-08-21T05:18:19;19.50;99.90
11569;DHT22;5840;46.894;15.542;2023-08-21T05:20:46;19.60;99.90
11569;DHT22;5840;46.894;15.542;2023-08-21T05:23:13;19.70;99.90
11569;DHT22;5840;46.894;15.542;2023-08-21T05:25:42;19.70;99.90
11569;DHT22;5840;46.894;15.542;2023-08-21T05:28:09;19.80;99.90
11569;DHT22;5840;46.894;15.542;2023-08-21T05:30:36;19.80;99.90
11569;DHT22;5840;46.894;15.542;2023-08-21T05:33:03;19.90;99.90
11569;DHT22;5840;46.894;15.542;2023-08-21T05:35:33;20.00;99.90
11569;DHT22;5840;46.894;15.542;2023-08-21T05:38:01;20.10;99.90
11569;DHT22;5840;46.894;15.542;2023-08-21T05:40:28;20.20;99.90
11569;DHT22;5840;46.894;15.542;2023-08-21T05:42:57;20.30;99.90
11569;DHT22;5840;46.894;15.542;2023-08-21T05:45:24;20.40;99.90
11569;DHT22;5840;46.894;15.542;2023-08-21T05:47:51;20.50;99.90
11569;DHT22;5840;46.894;15.542;2023-08-21T05:50:18;20.60;99.90
11569;DHT22;5840;46.894;15.542;2023-08-21T05:52:45;20.70;99.90
11569;DHT22;5840;46.894;15.542;2023-08-21T05:55:11;20.80;99.90
11569;DHT22;5840;46.894;15.542;2023-08-21T05:57:38;20.80;99.90
11569;DHT22;5840;46.894;15.542;2023-08-21T06:00:08;20.90;99.90
11569;DHT22;5840;46.894;15.542;2023-08-21T06:02:35;21.00;99.90
11569;DHT22;5840;46.894;15.542;2023-08-21T06:05:03;21.10;99.90
11569;DHT22;5840;46.894;15.542;2023-08-21T06:07:32;21.20;99.90
11569;DHT22;5840;46.894;15.542;2023-08-21T06:09:58;21.30;99.90
11569;DHT22;5840;46.894;15.542;2023-08-21T06:12:25;21.40;99.90
11569;DHT22;5840;46.894;15.542;2023-08-21T06:14:52;21.60;99.90
11569;DHT22;5840;46.894;15.542;2023-08-21T06:17:21;21.60;99.90
11569;DHT22;5840;46.894;15.542;2023-08-21T06:19:48;21.70;99.90
11569;DHT22;5840;46.894;15.542;2023-08-21T06:22:15;21.80;99.90
11569;DHT22;5840;46.894;15.542;2023-08-21T06:24:42;21.90;99.90
11569;DHT22;5840;46.894;15.542;2023-08-21T06:27:08;22.10;99.90
11569;DHT22;5840;46.894;15.542;2023-08-21T06:29:35;22.20;99.90
11569;DHT22;5840;46.894;15.542;2023-08-21T06:32:03;22.40;99.90
11569;DHT22;5840;46.894;15.542;2023-08-21T06:34:31;22.50;99.90
11569;DHT22;5840;46.894;15.542;2023-08-21T06:36:58;22.80;99.90
11569;DHT22;5840;46.894;15.542;2023-08-21T06:39:25;22.90;99.90
11569;DHT22;5840;46.894;15.542;2023-08-21T06:41:52;23.10;99.90
11569;DHT22;5840;46.894;15.542;2023-08-21T06:44:20;23.20;99.90
11569;DHT22;5840;46.894;15.542;2023-08-21T06:46:47;23.40;99.90
11569;DHT22;5840;46.894;15.542;2023-08-21T06:49:14;23.50;99.90
11569;DHT22;5840;46.894;15.542;2023-08-21T06:51:42;23.70;99.90
11569;DHT22;5840;46.894;15.542;2023-08-21T06:54:09;23.90;99.90
11569;DHT22;5840;46.894;15.542;2023-08-21T06:56:36;24.20;99.90
11569;DHT22;5840;46.894;15.542;2023-08-21T06:59:03;24.40;99.90
11569;DHT22;5840;46.894;15.542;2023-08-21T07:01:30;24.50;99.90
11569;DHT22;5840;46.894;15.542;2023-08-21T07:03:57;24.60;99.90
11569;DHT22;5840;46.894;15.542;2023-08-21T07:06:24;24.70;99.90
11569;DHT22;5840;46.894;15.542;2023-08-21T07:08:52;24.90;99.90
11569;DHT22;5840;46.894;15.542;2023-08-21T07:11:19;25.00;99.90
11569;DHT22;5840;46.894;15.542;2023-08-21T07:13:45;25.20;99.90
11569;DHT22;5840;46.894;15.542;2023-08-21T07:16:13;25.30;99.90
11569;DHT22;5840;46.894;15.542;2023-08-21T07:18:40;25.50;99.90
11569;DHT22;5840;46.894;15.542;2023-08-21T07:21:06;25.60;99.90
11569;DHT22;5840;46.894;15.542;2023-08-21T07:23:33;25.80;99.90
11569;DHT22;5840;46.894;15.542;2023-08-21T07:26:02;26.00;99.90
11569;DHT22;5840;46.894;15.542;2023-08-21T07:28:30;26.30;99.90
11569;DHT22;5840;46.894;15.542;2023-08-21T07:30:57;26.40;99.90
11569;DHT22;5840;46.894;15.542;2023-08-21T07:33:25;26.70;99.90
11569;DHT22;5840;46.894;15.542;2023-08-21T07:36:00;26.90;99.90
11569;DHT22;5840;46.894;15.542;2023-08-21T07:38:27;27.10;99.90
11569;DHT22;5840;46.894;15.542;2023-08-21T07:41:04;27.20;99.90
11569;DHT22;5840;46.894;15.542;2023-08-21T07:43:33;27.30;99.90
11569;DHT22;5840;46.894;15.542;2023-08-21T07:46:02;27.50;99.90
11569;DHT22;5840;46.894;15.542;2023-08-21T07:48:30;27.60;99.90
11569;DHT22;5840;46.894;15.542;2023-08-21T07:50:57;27.70;99.90
11569;DHT22;5840;46.894;15.542;2023-08-21T07:53:25;27.90;99.90
11569;DHT22;5840;46.894;15.542;2023-08-21T07:55:52;28.10;99.90
11569;DHT22;5840;46.894;15.542;2023-08-21T07:58:21;28.20;99.90
11569;DHT22;5840;46.894;15.542;2023-08-21T08:00:48;28.40;99.90
11569;DHT22;5840;46.894;15.542;2023-08-21T08:03:15;28.50;99.90
11569;DHT22;5840;46.894;15.542;2023-08-21T08:05:42;28.60;99.90
11569;DHT22;5840;46.894;15.542;2023-08-21T08:08:09;28.70;99.90
11569;DHT22;5840;46.894;15.542;2023-08-21T08:10:37;28.80;99.90
11569;DHT22;5840;46.894;15.542;2023-08-21T08:13:06;28.90;99.90
11569;DHT22;5840;46.894;15.542;2023-08-21T08:15:35;29.00;99.90
11569;DHT22;5840;46.894;15.542;2023-08-21T08:18:02;29.20;99.90
11569;DHT22;5840;46.894;15.542;2023-08-21T08:20:29;29.40;99.90
11569;DHT22;5840;46.894;15.542;2023-08-21T08:22:56;29.60;99.90
11569;DHT22;5840;46.894;15.542;2023-08-21T08:25:23;29.80;99.90
11569;DHT22;5840;46.894;15.542;2023-08-21T08:27:51;30.00;99.90
11569;DHT22;5840;46.894;15.542;2023-08-21T08:30:18;30.30;99.90
11569;DHT22;5840;46.894;15.542;2023-08-21T08:32:47;30.40;99.90
11569;DHT22;5840;46.894;15.542;2023-08-21T08:35:14;30.60;99.90
11569;DHT22;5840;46.894;15.542;2023-08-21T08:37:41;30.60;99.90
11569;DHT22;5840;46.894;15.542;2023-08-21T08:40:09;30.80;99.90
11569;DHT22;5840;46.894;15.542;2023-08-21T08:42:36;31.00;99.90
11569;DHT22;5840;46.894;15.542;2023-08-21T08:45:05;31.10;99.90
11569;DHT22;5840;46.894;15.542;2023-08-21T08:47:33;31.30;99.90
11569;DHT22;5840;46.894;15.542;2023-08-21T08:50:04;31.40;99.90
11569;DHT22;5840;46.894;15.542;2023-08-21T08:52:34;31.60;99.90
11569;DHT22;5840;46.894;15.542;2023-08-21T08:55:01;31.70;99.90
11569;DHT22;5840;46.894;15.542;2023-08-21T08:57:29;31.90;99.90
11569;DHT22;5840;46.894;15.542;2023-08-21T08:59:56;32.00;99.90
11569;DHT22;5840;46.894;15.542;2023-08-21T09:02:25;32.10;99.90
11569;DHT22;5840;46.894;15.542;2023-08-21T09:04:52;32.10;99.90
11569;DHT22;5840;46.894;15.542;2023-08-21T09:07:21;32.20;99.90
11569;DHT22;5840;46.894;15.542;2023-08-21T09:09:48;32.20;99.90
11569;DHT22;5840;46.894;15.542;2023-08-21T09:12:19;32.50;99.90
11569;DHT22;5840;46.894;15.542;2023-08-21T09:14:46;32.60;99.90
11569;DHT22;5840;46.894;15.542;2023-08-21T09:17:14;32.80;99.90
11569;DHT22;5840;46.894;15.542;2023-08-21T09:19:41;32.90;99.90
11569;DHT22;5840;46.894;15.542;2023-08-21T09:22:09;32.90;96.10
11569;DHT22;5840;46.894;15.542;2023-08-21T09:24:38;33.00;99.30
11569;DHT22;5840;46.894;15.542;2023-08-21T09:27:13;33.20;97.90
11569;DHT22;5840;46.894;15.542;2023-08-21T09:29:40;33.40;99.90
11569;DHT22;5840;46.894;15.542;2023-08-21T09:32:08;33.40;96.40
11569;DHT22;5840;46.894;15.542;2023-08-21T09:34:35;33.50;94.50
11569;DHT22;5840;46.894;15.542;2023-08-21T09:37:05;33.70;95.70
11569;DHT22;5840;46.894;15.542;2023-08-21T09:39:34;33.70;94.30
11569;DHT22;5840;46.894;15.542;2023-08-21T09:42:05;33.90;94.90
11569;DHT22;5840;46.894;15.542;2023-08-21T09:44:35;33.80;92.80
11569;DHT22;5840;46.894;15.542;2023-08-21T09:47:03;33.70;93.50
11569;DHT22;5840;46.894;15.542;2023-08-21T09:49:32;33.70;95.00
11569;DHT22;5840;46.894;15.542;2023-08-21T09:52:00;33.90;93.50
11569;DHT22;5840;46.894;15.542;2023-08-21T09:54:28;34.00;93.60
11569;DHT22;5840;46.894;15.542;2023-08-21T09:56:57;34.20;94.60
11569;DHT22;5840;46.894;15.542;2023-08-21T09:59:26;34.30;92.50
11569;DHT22;5840;46.894;15.542;2023-08-21T10:01:55;34.40;92.90
11569;DHT22;5840;46.894;15.542;2023-08-21T10:04:23;34.70;93.20
11569;DHT22;5840;46.894;15.542;2023-08-21T10:06:52;34.90;91.70
11569;DHT22;5840;46.894;15.542;2023-08-21T10:09:21;35.00;95.10
11569;DHT22;5840;46.894;15.542;2023-08-21T10:11:50;35.20;93.10
11569;DHT22;5840;46.894;15.542;2023-08-21T10:14:20;35.20;89.80
11569;DHT22;5840;46.894;15.542;2023-08-21T10:16:50;35.30;93.20
11569;DHT22;5840;46.894;15.542;2023-08-21T10:19:18;35.50;93.40
11569;DHT22;5840;46.894;15.542;2023-08-21T10:21:46;35.50;92.50
11569;DHT22;5840;46.894;15.542;2023-08-21T10:24:26;35.70;87.90
11569;DHT22;5840;46.894;15.542;2023-08-21T10:26:54;35.60;91.50
11569;DHT22;5840;46.894;15.542;2023-08-21T10:29:21;35.50;86.10
11569;DHT22;5840;46.894;15.542;2023-08-21T10:31:59;35.60;93.30
11569;DHT22;5840;46.894;15.542;2023-08-21T10:34:32;35.60;92.10
11569;DHT22;5840;46.894;15.542;2023-08-21T10:37:09;35.60;87.70
11569;DHT22;5840;46.894;15.542;2023-08-21T10:39:39;35.60;89.30
11569;DHT22;5840;46.894;15.542;2023-08-21T10:42:09;35.50;84.60
11569;DHT22;5840;46.894;15.542;2023-08-21T10:44:50;35.50;89.70
11569;DHT22;5840;46.894;15.542;2023-08-21T10:47:31;35.60;92.60
11569;DHT22;5840;46.894;15.542;2023-08-21T10:50:00;35.80;92.70
11569;DHT22;5840;46.894;15.542;2023-08-21T10:52:30;35.80;85.30
11569;DHT22;5840;46.894;15.542;2023-08-21T10:54:59;35.90;85.50
11569;DHT22;5840;46.894;15.542;2023-08-21T10:57:28;36.00;90.00
11569;DHT22;5840;46.894;15.542;2023-08-21T10:59:57;36.00;76.40
11569;DHT22;5840;46.894;15.542;2023-08-21T11:02:26;36.00;85.80
11569;DHT22;5840;46.894;15.542;2023-08-21T11:04:56;36.10;87.30
11569;DHT22;5840;46.894;15.542;2023-08-21T11:07:23;36.10;77.20
11569;DHT22;5840;46.894;15.542;2023-08-21T11:09:50;36.00;75.80
11569;DHT22;5840;46.894;15.542;2023-08-21T11:12:19;36.10;76.10
11569;DHT22;5840;46.894;15.542;2023-08-21T11:14:47;36.10;78.20
11569;DHT22;5840;46.894;15.542;2023-08-21T11:17:14;36.30;89.90
11569;DHT22;5840;46.894;15.542;2023-08-21T11:19:42;36.30;85.90
11569;DHT22;5840;46.894;15.542;2023-08-21T11:22:11;36.30;86.40
11569;DHT22;5840;46.894;15.542;2023-08-21T11:24:43;36.40;83.00
11569;DHT22;5840;46.894;15.542;2023-08-21T11:27:11;36.40;80.40
11569;DHT22;5840;46.894;15.542;2023-08-21T11:29:40;36.40;76.20
11569;DHT22;5840;46.894;15.542;2023-08-21T11:32:18;36.50;79.40
11569;DHT22;5840;46.894;15.542;2023-08-21T11:34:48;36.40;83.60
11569;DHT22;5840;46.894;15.542;2023-08-21T11:37:18;36.40;86.40
11569;DHT22;5840;46.894;15.542;2023-08-21T11:39:47;36.50;78.30
11569;DHT22;5840;46.894;15.542;2023-08-21T11:42:15;36.40;77.50
11569;DHT22;5840;46.894;15.542;2023-08-21T11:44:47;36.40;83.30
11569;DHT22;5840;46.894;15.542;2023-08-21T11:47:14;36.40;83.40
11569;DHT22;5840;46.894;15.542;2023-08-21T11:49:42;36.50;79.50
11569;DHT22;5840;46.894;15.542;2023-08-21T11:52:10;36.60;83.90
11569;DHT22;5840;46.894;15.542;2023-08-21T11:54:39;36.60;84.20
11569;DHT22;5840;46.894;15.542;2023-08-21T11:57:08;36.70;79.60
11569;DHT22;5840;46.894;15.542;2023-08-21T11:59:35;36.90;84.20
11569;DHT22;5840;46.894;15.542;2023-08-21T12:02:13;37.00;80.30
11569;DHT22;5840;46.894;15.542;2023-08-21T12:04:40;37.10;84.70
11569;DHT22;5840;46.894;15.542;2023-08-21T12:07:07;37.30;81.70
11569;DHT22;5840;46.894;15.542;2023-08-21T12:09:34;37.30;82.20
11569;DHT22;5840;46.894;15.542;2023-08-21T12:12:03;37.40;83.70
11569;DHT22;5840;46.894;15.542;2023-08-21T12:14:31;37.40;85.90
11569;DHT22;5840;46.894;15.542;2023-08-21T12:16:58;37.40;84.40
11569;DHT22;5840;46.894;15.542;2023-08-21T12:19:25;37.50;77.00
11569;DHT22;5840;46.894;15.542;2023-08-21T12:21:52;37.30;81.40
11569;DHT22;5840;46.894;15.542;2023-08-21T12:24:18;37.10;73.10
11569;DHT22;5840;46.894;15.542;2023-08-21T12:26:45;37.00;77.30
11569;DHT22;5840;46.894;15.542;2023-08-21T12:29:14;36.90;80.30
11569;DHT22;5840;46.894;15.542;2023-08-21T12:31:41;36.90;78.60
11569;DHT22;5840;46.894;15.542;2023-08-21T12:34:08;36.70;78.60
11569;DHT22;5840;46.894;15.542;2023-08-21T12:36:35;36.60;81.90
11569;DHT22;5840;46.894;15.542;2023-08-21T12:39:03;36.40;73.80
11569;DHT22;5840;46.894;15.542;2023-08-21T12:41:31;36.40;81.00
11569;DHT22;5840;46.894;15.542;2023-08-21T12:43:58;36.50;75.90
11569;DHT22;5840;46.894;15.542;2023-08-21T12:46:26;36.40;82.60
11569;DHT22;5840;46.894;15.542;2023-08-21T12:48:55;36.30;82.90
11569;DHT22;5840;46.894;15.542;2023-08-21T12:51:22;36.20;77.70
11569;DHT22;5840;46.894;15.542;2023-08-21T12:53:49;36.10;82.50
11569;DHT22;5840;46.894;15.542;2023-08-21T12:56:16;36.10;74.70
11569;DHT22;5840;46.894;15.542;2023-08-21T12:58:43;36.00;77.30
11569;DHT22;5840;46.894;15.542;2023-08-21T13:01:10;36.00;86.40
11569;DHT22;5840;46.894;15.542;2023-08-21T13:03:39;36.00;79.60
11569;DHT22;5840;46.894;15.542;2023-08-21T13:06:09;35.90;82.10
11569;DHT22;5840;46.894;15.542;2023-08-21T13:08:36;35.90;81.70
11569;DHT22;5840;46.894;15.542;2023-08-21T13:11:04;36.00;80.40
11569;DHT22;5840;46.894;15.542;2023-08-21T13:13:33;36.00;82.60
11569;DHT22;5840;46.894;15.542;2023-08-21T13:16:00;35.90;76.00
11569;DHT22;5840;46.894;15.542;2023-08-21T13:18:27;35.80;82.70
11569;DHT22;5840;46.894;15.542;2023-08-21T13:20:55;35.80;82.10
11569;DHT22;5840;46.894;15.542;2023-08-21T13:23:22;35.80;82.70
11569;DHT22;5840;46.894;15.542;2023-08-21T13:25:49;35.90;80.30
11569;DHT22;5840;46.894;15.542;2023-08-21T13:28:16;35.90;83.40
11569;DHT22;5840;46.894;15.542;2023-08-21T13:30:43;35.70;79.30
11569;DHT22;5840;46.894;15.542;2023-08-21T13:33:10;35.60;78.70
11569;DHT22;5840;46.894;15.542;2023-08-21T13:35:37;35.40;83.90
11569;DHT22;5840;46.894;15.542;2023-08-21T13:38:05;35.40;83.00
11569;DHT22;5840;46.894;15.542;2023-08-21T13:40:34;35.20;83.80
11569;DHT22;5840;46.894;15.542;2023-08-21T13:43:01;35.10;78.90
11569;DHT22;5840;46.894;15.542;2023-08-21T13:45:28;35.10;78.50
11569;DHT22;5840;46.894;15.542;2023-08-21T13:47:55;35.20;79.60
11569;DHT22;5840;46.894;15.542;2023-08-21T13:50:22;35.30;81.10
11569;DHT22;5840;46.894;15.542;2023-08-21T13:52:49;35.30;81.90
11569;DHT22;5840;46.894;15.542;2023-08-21T13:55:17;35.30;85.20
11569;DHT22;5840;46.894;15.542;2023-08-21T13:57:44;35.40;89.40
11569;DHT22;5840;46.894;15.542;2023-08-21T14:00:12;35.20;79.80
11569;DHT22;5840;46.894;15.542;2023-08-21T14:02:40;35.20;80.70
11569;DHT22;5840;46.894;15.542;2023-08-21T14:05:08;35.20;85.10
11569;DHT22;5840;46.894;15.542;2023-08-21T14:07:35;35.20;90.10
11569;DHT22;5840;46.894;15.542;2023-08-21T14:10:03;35.20;87.20
11569;DHT22;5840;46.894;15.542;2023-08-21T14:12:32;35.00;79.10
11569;DHT22;5840;46.894;15.542;2023-08-21T14:14:59;34.70;77.80
11569;DHT22;5840;46.894;15.542;2023-08-21T14:17:26;34.60;80.00
11569;DHT22;5840;46.894;15.542;2023-08-21T14:19:53;34.40;79.20
11569;DHT22;5840;46.894;15.542;2023-08-21T14:22:20;34.30;82.70
11569;DHT22;5840;46.894;15.542;2023-08-21T14:24:47;34.30;79.20
11569;DHT22;5840;46.894;15.542;2023-08-21T14:27:14;34.30;82.50
11569;DHT22;5840;46.894;15.542;2023-08-21T14:29:43;34.30;82.10
11569;DHT22;5840;46.894;15.542;2023-08-21T14:32:10;34.20;84.60
11569;DHT22;5840;46.894;15.542;2023-08-21T14:34:37;34.20;87.30
11569;DHT22;5840;46.894;15.542;2023-08-21T14:37:04;34.10;84.10
11569;DHT22;5840;46.894;15.542;2023-08-21T14:39:32;34.10;84.60
11569;DHT22;5840;46.894;15.542;2023-08-21T14:41:59;33.90;85.40
11569;DHT22;5840;46.894;15.542;2023-08-21T14:44:27;33.80;81.10
11569;DHT22;5840;46.894;15.542;2023-08-21T14:46:55;33.70;84.00
11569;DHT22;5840;46.894;15.542;2023-08-21T14:49:23;33.60;82.40
11569;DHT22;5840;46.894;15.542;2023-08-21T14:51:50;33.60;86.90
11569;DHT22;5840;46.894;15.542;2023-08-21T14:54:17;33.60;86.70
11569;DHT22;5840;46.894;15.542;2023-08-21T14:56:44;33.60;88.70
11569;DHT22;5840;46.894;15.542;2023-08-21T14:59:11;33.60;86.40
11569;DHT22;5840;46.894;15.542;2023-08-21T15:01:40;33.50;83.20
11569;DHT22;5840;46.894;15.542;2023-08-21T15:04:09;33.50;87.90
11569;DHT22;5840;46.894;15.542;2023-08-21T15:06:37;33.40;86.80
11569;DHT22;5840;46.894;15.542;2023-08-21T15:09:05;33.30;84.10
11569;DHT22;5840;46.894;15.542;2023-08-21T15:11:32;33.10;85.40
11569;DHT22;5840;46.894;15.542;2023-08-21T15:14:00;33.10;88.40
11569;DHT22;5840;46.894;15.542;2023-08-21T15:16:27;33.10;89.40
11569;DHT22;5840;46.894;15.542;2023-08-21T15:18:54;33.00;86.10
11569;DHT22;5840;46.894;15.542;2023-08-21T15:21:23;33.00;86.20
11569;DHT22;5840;46.894;15.542;2023-08-21T15:23:49;32.90;87.00
11569;DHT22;5840;46.894;15.542;2023-08-21T15:26:17;32.90;87.50
11569;DHT22;5840;46.894;15.542;2023-08-21T15:28:44;32.90;88.80
11569;DHT22;5840;46.894;15.542;2023-08-21T15:31:11;32.80;90.30
11569;DHT22;5840;46.894;15.542;2023-08-21T15:33:38;32.70;87.40